Pacific Princess — ZCDS3 — position and weather

sailwx.info

Track history (hours):
 
Tides and Currents Weather Stations Pressure Air Temp Water Temp Dewpoint Dewpoint Depression Visibility Wind Speed Wind Dir Waves Ship Positions

Pacific Princess (Bermuda)

Last reported at 2014-Jul-31 08:33 UTC. Time now 2014-Aug-01 11:59 UTC.
Position N 54°19' W 131°03'.

Length 180.5 m; beam 25.6 m; draft 6 m.

Type: Passenger vessel. MMSI: 310504000.

Date/timePositionNaut miles runAvg speedWind from/ knotsBaromVisibWave heightAir tempDewpointWater temp
2014-Jul-31 08:33N 54°19' W 131°03'23315.5
2014-Jul-30 17:32N 50°59' W 127°47'1414.3
2014-Jul-30 16:33N 50°50' W 127°28'1515.1
2014-Jul-30 15:33N 50°44' W 127°07'8512.1
2014-Jul-30 08:30N 49°60' W 125°12'9 9.6
2014-Jul-30 07:33N 49°53' W 125°03'9 9.2
2014-Jul-30 06:33N 49°47' W 124°52'9 9.1
2014-Jul-30 05:33N 49°40' W 124°42'9 9.0
2014-Jul-30 04:33N 49°33' W 124°34'9 8.9
2014-Jul-30 03:33N 49°27' W 124°24'9 8.7
2014-Jul-30 02:33N 49°24' W 124°11'9 9.2
2014-Jul-30 01:33N 49°22' W 123°58'10 9.6
2014-Jul-30 00:33N 49°21' W 123°43'10 9.5
2014-Jul-29 23:33N 49°19' W 123°28'10 9.6
2014-Jul-29 22:33N 49°19' W 123°14'5 5.0
2014-Jul-29 21:31N 49°17' W 123°06'0 0.0
2014-Jul-29 20:31N 49°17' W 123°06'0 0.0
2014-Jul-29 19:31N 49°17' W 123°06'0 0.0
2014-Jul-29 18:31N 49°17' W 123°06'0 0.0
2014-Jul-29 17:31N 49°17' W 123°06'0 0.0
2014-Jul-29 16:31N 49°17' W 123°06'0 0.0
2014-Jul-29 15:31N 49°17' W 123°06'0 0.0
2014-Jul-29 14:31N 49°17' W 123°06'3 3.2
2014-Jul-29 13:33N 49°19' W 123°11'1716.9
2014-Jul-29 12:33N 49°19' W 123°36'2019.9
2014-Jul-29 11:33N 49°23' W 124°06'1919.1
2014-Jul-29 10:33N 49°32' W 124°33'2019.7
2014-Jul-29 09:33N 49°47' W 124°53'3115.0
2014-Jul-29 07:29N 50°11' W 125°22'9 9.5
2014-Jul-29 06:32N 50°20' W 125°26'3912.2
2014-Jul-29 03:21N 50°30' W 126°24'1411.1
2014-Jul-29 02:06N 50°36' W 126°44'711.8
2014-Jul-29 01:30N 50°41' W 126°52'1212.0
2014-Jul-29 00:32N 50°45' W 127°10'1111.1
2014-Jul-28 23:33N 50°49' W 127°25'1111.2
2014-Jul-28 22:33N 50°55' W 127°40'1412.8
2014-Jul-28 21:27N 51°04' W 127°58'2 2.6
2014-Jul-28 20:33N 51°02' W 127°55'3 2.9
2014-Jul-28 19:32N 51°04' W 127°59'0 0.3
2014-Jul-28 18:22N 51°04' W 127°59'  
2014-Jul-24 07:20N 54°19' W 131°04'22712.5
2014-Jul-23 13:12N 51°03' W 127°56'913.6
2014-Jul-23 12:33N 50°58' W 127°45'1212.0
2014-Jul-23 11:33N 50°51' W 127°30'1413.1
2014-Jul-23 10:31N 50°45' W 127°10'1513.1
2014-Jul-23 09:21N 50°39' W 126°48'7312.4
2014-Jul-23 03:31N 49°60' W 125°12'1515.4
2014-Jul-23 02:33N 49°50' W 124°56'1717.5
2014-Jul-23 01:33N 49°38' W 124°36'1818.2
2014-Jul-23 00:34N 49°25' W 124°17'1919.4
2014-Jul-22 23:34N 49°22' W 123°47'1919.3
2014-Jul-22 22:33N 49°19' W 123°18'8 7.5
2014-Jul-22 21:33N 49°17' W 123°06'0 0.0
2014-Jul-22 20:33N 49°17' W 123°06'0 0.0
2014-Jul-22 19:33N 49°17' W 123°06'0 0.0
2014-Jul-22 18:31N 49°17' W 123°06'0 0.0
2014-Jul-22 17:31N 49°17' W 123°06'0 0.0
2014-Jul-22 16:32N 49°17' W 123°06'0 0.0
2014-Jul-22 15:31N 49°17' W 123°06'0 0.0
2014-Jul-22 14:32N 49°17' W 123°06'1 0.6
2014-Jul-22 13:34N 49°18' W 123°06'1111.1
2014-Jul-22 12:33N 49°18' W 123°23'1111.1
2014-Jul-22 11:33N 49°19' W 123°40'10 9.9
2014-Jul-22 10:33N 49°21' W 123°55'1010.2
2014-Jul-22 09:33N 49°24' W 124°10'1010.0
2014-Jul-22 08:33N 49°27' W 124°25'10 9.9
2014-Jul-22 07:33N 49°34' W 124°36'1010.3
2014-Jul-22 06:33N 49°42' W 124°47'1010.3
2014-Jul-22 05:33N 49°49' W 124°57'1110.5
2014-Jul-22 04:31N 49°57' W 125°09'1210.6
2014-Jul-22 03:23N 50°07' W 125°20'7112.2
2014-Jul-21 21:32N 50°42' W 126°58'1414.4
2014-Jul-21 20:33N 50°47' W 127°18'414.3
2014-Jul-21 20:18N 50°49' W 127°23'1114.2
2014-Jul-21 19:33N 50°54' W 127°38'1111.5
2014-Jul-21 18:33N 51°01' W 127°52'  
Track history (hours):
 
Tides and Currents Weather Stations Pressure Air Temp Water Temp Dewpoint Dewpoint Depression Visibility Wind Speed Wind Dir Waves Ship Positions

Pacific Princess (Bermuda)

Last reported at 2014-Jul-31 08:33 UTC. Time now 2014-Aug-01 11:59 UTC.
Position N 54°19' W 131°03'.

Length 180.5 m; beam 25.6 m; draft 6 m.

Type: Passenger vessel. MMSI: 310504000.

Date/timePositionNaut miles runAvg speedWind from/ knotsBaromVisibWave heightAir tempDewpointWater temp
2014-Jul-31 08:33N 54°19' W 131°03'23315.5
2014-Jul-30 17:32N 50°59' W 127°47'1414.3
2014-Jul-30 16:33N 50°50' W 127°28'1515.1
2014-Jul-30 15:33N 50°44' W 127°07'8512.1
2014-Jul-30 08:30N 49°60' W 125°12'9 9.6
2014-Jul-30 07:33N 49°53' W 125°03'9 9.2
2014-Jul-30 06:33N 49°47' W 124°52'9 9.1
2014-Jul-30 05:33N 49°40' W 124°42'9 9.0
2014-Jul-30 04:33N 49°33' W 124°34'9 8.9
2014-Jul-30 03:33N 49°27' W 124°24'9 8.7
2014-Jul-30 02:33N 49°24' W 124°11'9 9.2
2014-Jul-30 01:33N 49°22' W 123°58'10 9.6
2014-Jul-30 00:33N 49°21' W 123°43'10 9.5
2014-Jul-29 23:33N 49°19' W 123°28'10 9.6
2014-Jul-29 22:33N 49°19' W 123°14'5 5.0
2014-Jul-29 21:31N 49°17' W 123°06'0 0.0
2014-Jul-29 20:31N 49°17' W 123°06'0 0.0
2014-Jul-29 19:31N 49°17' W 123°06'0 0.0
2014-Jul-29 18:31N 49°17' W 123°06'0 0.0
2014-Jul-29 17:31N 49°17' W 123°06'0 0.0
2014-Jul-29 16:31N 49°17' W 123°06'0 0.0
2014-Jul-29 15:31N 49°17' W 123°06'0 0.0
2014-Jul-29 14:31N 49°17' W 123°06'3 3.2
2014-Jul-29 13:33N 49°19' W 123°11'1716.9
2014-Jul-29 12:33N 49°19' W 123°36'2019.9
2014-Jul-29 11:33N 49°23' W 124°06'1919.1
2014-Jul-29 10:33N 49°32' W 124°33'2019.7
2014-Jul-29 09:33N 49°47' W 124°53'3115.0
2014-Jul-29 07:29N 50°11' W 125°22'9 9.5
2014-Jul-29 06:32N 50°20' W 125°26'3912.2
2014-Jul-29 03:21N 50°30' W 126°24'1411.1
2014-Jul-29 02:06N 50°36' W 126°44'711.8
2014-Jul-29 01:30N 50°41' W 126°52'1212.0
2014-Jul-29 00:32N 50°45' W 127°10'1111.1
2014-Jul-28 23:33N 50°49' W 127°25'1111.2
2014-Jul-28 22:33N 50°55' W 127°40'1412.8
2014-Jul-28 21:27N 51°04' W 127°58'2 2.6
2014-Jul-28 20:33N 51°02' W 127°55'3 2.9
2014-Jul-28 19:32N 51°04' W 127°59'0 0.3
2014-Jul-28 18:22N 51°04' W 127°59'  
2014-Jul-24 07:20N 54°19' W 131°04'22712.5
2014-Jul-23 13:12N 51°03' W 127°56'913.6
2014-Jul-23 12:33N 50°58' W 127°45'1212.0
2014-Jul-23 11:33N 50°51' W 127°30'1413.1
2014-Jul-23 10:31N 50°45' W 127°10'1513.1
2014-Jul-23 09:21N 50°39' W 126°48'7312.4
2014-Jul-23 03:31N 49°60' W 125°12'1515.4
2014-Jul-23 02:33N 49°50' W 124°56'1717.5
2014-Jul-23 01:33N 49°38' W 124°36'1818.2
2014-Jul-23 00:34N 49°25' W 124°17'1919.4
2014-Jul-22 23:34N 49°22' W 123°47'1919.3
2014-Jul-22 22:33N 49°19' W 123°18'8 7.5
2014-Jul-22 21:33N 49°17' W 123°06'0 0.0
2014-Jul-22 20:33N 49°17' W 123°06'0 0.0
2014-Jul-22 19:33N 49°17' W 123°06'0 0.0
2014-Jul-22 18:31N 49°17' W 123°06'0 0.0
2014-Jul-22 17:31N 49°17' W 123°06'0 0.0
2014-Jul-22 16:32N 49°17' W 123°06'0 0.0
2014-Jul-22 15:31N 49°17' W 123°06'0 0.0
2014-Jul-22 14:32N 49°17' W 123°06'1 0.6
2014-Jul-22 13:34N 49°18' W 123°06'1111.1
2014-Jul-22 12:33N 49°18' W 123°23'1111.1
2014-Jul-22 11:33N 49°19' W 123°40'10 9.9
2014-Jul-22 10:33N 49°21' W 123°55'1010.2
2014-Jul-22 09:33N 49°24' W 124°10'1010.0
2014-Jul-22 08:33N 49°27' W 124°25'10 9.9
2014-Jul-22 07:33N 49°34' W 124°36'1010.3
2014-Jul-22 06:33N 49°42' W 124°47'1010.3
2014-Jul-22 05:33N 49°49' W 124°57'1110.5
2014-Jul-22 04:31N 49°57' W 125°09'1210.6
2014-Jul-22 03:23N 50°07' W 125°20'7112.2
2014-Jul-21 21:32N 50°42' W 126°58'1414.4
2014-Jul-21 20:33N 50°47' W 127°18'414.3
2014-Jul-21 20:18N 50°49' W 127°23'1114.2
2014-Jul-21 19:33N 50°54' W 127°38'1111.5
2014-Jul-21 18:33N 51°01' W 127°52'  

Dump ship's entire track history